Time;durP1;ratioP1;P1;durP2;ratioP2;P2;SDS_P1;SDS_P2;PMS_P1;PMS_P2;Temp;Humidity;BMP_temperature;BMP_pressure;BME280_temperature;BME280_humidity;BME280_pressure;Samples;Min_cycle;Max_cycle;Signal;HPM_P1;HPM_P2
2023/03/24 00:00:10;;;;;;;;;14.00;14.00;;;;;;;;5048120;29;8794;-68
2023/03/24 00:02:42;;;;;;;;;21.40;21.40;;;;;;;;5047869;29;9460;-68
2023/03/24 00:05:15;;;;;;;;;14.20;14.20;;;;;;;;5048120;29;9505;-68
2023/03/24 00:08:04;;;;;;;;;20.00;20.00;;;;;;;;5064447;29;8791;-68
2023/03/24 00:10:35;;;;;;;;;24.00;22.50;;;;;;;;5064889;29;8883;-67
2023/03/24 00:13:06;;;;;;;;;23.50;23.50;;;;;;;;5048934;29;8774;-68
2023/03/24 00:15:37;;;;;;;;;19.80;19.60;;;;;;;;5051332;29;9577;-68
2023/03/24 00:18:09;;;;;;;;;26.20;24.20;;;;;;;;5068036;29;8840;-69
2023/03/24 00:20:41;;;;;;;;;29.80;27.60;;;;;;;;5068336;29;8808;-69
2023/03/24 00:23:12;;;;;;;;;24.60;22.80;;;;;;;;5035329;29;8818;-69
2023/03/24 00:25:44;;;;;;;;;23.40;23.00;;;;;;;;5051261;29;8861;-69
2023/03/24 00:28:35;;;;;;;;;24.60;24.60;;;;;;;;5051257;29;9621;-69
2023/03/24 00:31:07;;;;;;;;;24.20;24.20;;;;;;;;5051059;29;8801;-70
2023/03/24 00:33:39;;;;;;;;;22.00;22.00;;;;;;;;5035379;29;8774;-70
2023/03/24 00:36:11;;;;;;;;;21.40;21.40;;;;;;;;5067674;29;8801;-70
2023/03/24 00:38:41;;;;;;;;;17.00;17.00;;;;;;;;5051042;29;8901;-70
2023/03/24 00:41:13;;;;;;;;;19.00;18.75;;;;;;;;5050509;29;8968;-69
2023/03/24 00:43:45;;;;;;;;;13.20;13.20;;;;;;;;5067239;29;8846;-69
2023/03/24 00:46:26;;;;;;;;;22.60;21.80;;;;;;;;5051037;29;8782;-69
2023/03/24 00:49:15;;;;;;;;;17.00;17.00;;;;;;;;5053011;29;8786;-69
2023/03/24 00:51:47;;;;;;;;;21.00;20.20;;;;;;;;5035252;29;8892;-70
2023/03/24 00:54:20;;;;;;;;;7.75;7.50;;;;;;;;5035137;29;8845;-70
2023/03/24 00:57:11;;;;;;;;;25.40;23.40;;;;;;;;5050423;29;8962;-68
2023/03/24 00:59:47;;;;;;;;;21.60;21.00;;;;;;;;5035063;29;8805;-68
2023/03/24 01:02:21;;;;;;;;;19.40;18.60;;;;;;;;5035155;29;9510;-68
2023/03/24 01:04:56;;;;;;;;;26.00;25.80;;;;;;;;5067074;29;8817;-68
2023/03/24 01:07:28;;;;;;;;;19.20;18.40;;;;;;;;5066815;29;8822;-68
2023/03/24 01:10:01;;;;;;;;;18.80;18.80;;;;;;;;5066646;29;8809;-68
2023/03/24 01:12:33;;;;;;;;;20.60;19.80;;;;;;;;5034515;29;8794;-68
2023/03/24 01:15:08;;;;;;;;;16.60;16.60;;;;;;;;5067151;29;8828;-68
2023/03/24 01:17:39;;;;;;;;;22.80;22.80;;;;;;;;5066880;29;8829;-68
2023/03/24 01:20:10;;;;;;;;;21.40;21.40;;;;;;;;5066806;29;8802;-68
2023/03/24 01:22:43;;;;;;;;;24.00;23.80;;;;;;;;5049529;29;8941;-68
2023/03/24 01:25:16;;;;;;;;;21.60;21.60;;;;;;;;5049711;29;8920;-69
2023/03/24 01:27:47;;;;;;;;;17.80;17.80;;;;;;;;5066500;29;8810;-68
2023/03/24 01:30:21;;;;;;;;;21.60;21.20;;;;;;;;5066718;29;8774;-68
2023/03/24 01:32:53;;;;;;;;;22.40;21.80;;;;;;;;5050174;29;8786;-69
2023/03/24 01:35:25;;;;;;;;;23.00;23.00;;;;;;;;5034455;29;8794;-69
2023/03/24 01:37:56;;;;;;;;;20.60;20.20;;;;;;;;5050087;29;8818;-69
2023/03/24 01:40:29;;;;;;;;;23.20;23.00;;;;;;;;5049897;29;8888;-69
2023/03/24 01:43:00;;;;;;;;;18.60;18.60;;;;;;;;5049074;29;8806;-69
2023/03/24 01:45:56;;;;;;;;;20.40;19.80;;;;;;;;5050151;29;8865;-69
2023/03/24 01:48:30;;;;;;;;;19.80;19.80;;;;;;;;5047687;29;8853;-69
2023/03/24 01:51:11;;;;;;;;;23.40;22.80;;;;;;;;5065244;29;8818;-70
2023/03/24 01:54:06;;;;;;;;;25.60;25.20;;;;;;;;5066260;29;8878;-68
2023/03/24 01:56:39;;;;;;;;;25.20;25.20;;;;;;;;5048441;29;8825;-68
2023/03/24 01:59:12;;;;;;;;;20.00;19.80;;;;;;;;5048670;29;8790;-68
2023/03/24 02:01:48;;;;;;;;;22.80;22.80;;;;;;;;5048684;29;8981;-68
2023/03/24 02:04:44;;;;;;;;;25.60;25.40;;;;;;;;5048826;29;8840;-68
2023/03/24 02:07:19;;;;;;;;;18.40;18.40;;;;;;;;5032845;29;8809;-70
2023/03/24 02:09:50;;;;;;;;;24.00;24.00;;;;;;;;5048405;29;8806;-69
2023/03/24 02:12:21;;;;;;;;;23.00;21.50;;;;;;;;5030394;29;8810;-69
2023/03/24 02:14:52;;;;;;;;;25.60;24.20;;;;;;;;5030486;29;9009;-69
2023/03/24 02:17:46;;;;;;;;;20.00;20.00;;;;;;;;5032394;29;8858;-68
2023/03/24 02:20:21;;;;;;;;;25.20;24.60;;;;;;;;5029641;29;8834;-69
2023/03/24 02:23:14;;;;;;;;;32.00;25.00;;;;;;;;5048474;29;8814;-67
2023/03/24 02:26:03;;;;;;;;;25.20;25.20;;;;;;;;5049206;29;8790;-67
2023/03/24 02:28:37;;;;;;;;;19.40;19.00;;;;;;;;5014570;29;9519;-67
2023/03/24 02:31:27;;;;;;;;;23.60;23.40;;;;;;;;5029719;29;8808;-67
2023/03/24 02:34:35;;;;;;;;;26.00;26.00;;;;;;;;5046279;29;8814;-68
2023/03/24 02:37:17;;;;;;;;;19.40;19.40;;;;;;;;5064447;29;8825;-68
2023/03/24 02:39:59;;;;;;;;;16.00;15.00;;;;;;;;5061308;29;8813;-69
2023/03/24 02:42:43;;;;;;;;;25.60;25.60;;;;;;;;5029290;29;8810;-68
2023/03/24 02:45:26;;;;;;;;;21.40;21.20;;;;;;;;5041688;29;8806;-67
2023/03/24 02:48:06;;;;;;;;;24.80;24.80;;;;;;;;5065236;29;8798;-68
2023/03/24 02:50:44;;;;;;;;;24.20;22.80;;;;;;;;5048649;29;8798;-68
2023/03/24 02:53:18;;;;;;;;;23.60;21.80;;;;;;;;5064577;29;8797;-70
2023/03/24 02:56:15;;;;;;;;;22.40;22.40;;;;;;;;5046454;29;8794;-71
2023/03/24 02:58:54;;;;;;;;;23.00;23.00;;;;;;;;5045088;29;8854;-70
2023/03/24 03:01:52;;;;;;;;;21.40;21.20;;;;;;;;5047803;29;8829;-70
2023/03/24 03:04:45;;;;;;;;;23.80;23.80;;;;;;;;5048733;29;8814;-68
2023/03/24 03:07:20;;;;;;;;;25.80;25.60;;;;;;;;5029286;29;8812;-68
2023/03/24 03:09:59;;;;;;;;;25.60;25.40;;;;;;;;5027346;29;8934;-69
2023/03/24 03:12:33;;;;;;;;;18.40;18.40;;;;;;;;5042365;29;8800;-70
2023/03/24 03:15:07;;;;;;;;;22.20;22.20;;;;;;;;5012073;29;8811;-70
2023/03/24 03:17:41;;;;;;;;;25.60;25.60;;;;;;;;5045641;29;8883;-68
2023/03/24 03:20:15;;;;;;;;;30.20;30.00;;;;;;;;5029363;29;8792;-68
2023/03/24 03:22:48;;;;;;;;;25.20;23.80;;;;;;;;5017509;29;8798;-68
2023/03/24 03:25:22;;;;;;;;;28.20;28.20;;;;;;;;5032326;29;9660;-68
2023/03/24 03:28:16;;;;;;;;;28.20;27.00;;;;;;;;5065380;29;8869;-68
2023/03/24 03:30:55;;;;;;;;;31.40;30.40;;;;;;;;5033230;29;8798;-68
2023/03/24 03:33:32;;;;;;;;;19.40;18.80;;;;;;;;5064978;29;9494;-68
2023/03/24 03:36:15;;;;;;;;;34.40;30.80;;;;;;;;5017613;29;8893;-68
2023/03/24 03:38:46;;;;;;;;;30.00;28.60;;;;;;;;5064601;29;8813;-68
2023/03/24 03:41:18;;;;;;;;;27.60;27.60;;;;;;;;5048112;29;8790;-68
2023/03/24 03:43:51;;;;;;;;;31.20;30.80;;;;;;;;5048196;29;8774;-68
2023/03/24 03:46:22;;;;;;;;;26.40;26.40;;;;;;;;5047604;29;8793;-68
2023/03/24 03:48:54;;;;;;;;;36.80;35.60;;;;;;;;5050135;29;8782;-68
2023/03/24 03:51:25;;;;;;;;;42.50;38.75;;;;;;;;5051922;29;8813;-68
2023/03/24 03:54:01;;;;;;;;;48.40;42.40;;;;;;;;5051845;29;8923;-68
2023/03/24 03:56:35;;;;;;;;;43.20;39.20;;;;;;;;5051574;29;8783;-67
2023/03/24 03:59:36;;;;;;;;;45.80;41.80;;;;;;;;5043458;29;8802;-68
2023/03/24 04:02:16;;;;;;;;;49.60;42.00;;;;;;;;5036898;29;8778;-68
2023/03/24 04:05:20;;;;;;;;;77.60;57.80;;;;;;;;5044377;29;8794;-68
2023/03/24 04:08:30;;;;;;;;;41.00;37.40;;;;;;;;5050323;29;8828;-68
2023/03/24 04:11:26;;;;;;;;;47.60;40.80;;;;;;;;5036228;29;8782;-68
2023/03/24 04:14:40;;;;;;;;;33.20;31.60;;;;;;;;5040226;29;8797;-68
2023/03/24 04:17:39;;;;;;;;;51.00;42.80;;;;;;;;5053500;29;8806;-68
2023/03/24 04:20:21;;;;;;;;;42.40;38.80;;;;;;;;5068342;29;8797;-68
2023/03/24 04:22:59;;;;;;;;;37.00;34.20;;;;;;;;5050607;29;8814;-68
2023/03/24 04:25:33;;;;;;;;;36.00;35.80;;;;;;;;5051181;29;8932;-68
2023/03/24 04:28:05;;;;;;;;;31.00;31.00;;;;;;;;5036036;29;9535;-68
2023/03/24 04:30:39;;;;;;;;;36.75;36.00;;;;;;;;5051255;29;8824;-68
2023/03/24 04:33:21;;;;;;;;;41.60;38.80;;;;;;;;5020369;29;11529;-68
2023/03/24 04:36:05;;;;;;;;;38.00;36.40;;;;;;;;5035471;29;8801;-68
2023/03/24 04:38:44;;;;;;;;;41.00;38.40;;;;;;;;5035572;29;8817;-68
2023/03/24 04:41:42;;;;;;;;;48.20;41.80;;;;;;;;5051043;29;9635;-68
2023/03/24 04:44:20;;;;;;;;;50.40;43.60;;;;;;;;5050310;29;8897;-68
2023/03/24 04:47:21;;;;;;;;;37.60;35.00;;;;;;;;5050766;29;8876;-68
2023/03/24 04:50:11;;;;;;;;;34.80;34.40;;;;;;;;5066963;29;8798;-68
2023/03/24 04:52:43;;;;;;;;;46.80;41.60;;;;;;;;5035003;29;8885;-67
2023/03/24 04:55:36;;;;;;;;;25.00;21.80;;;;;;;;5050273;29;8840;-67
2023/03/24 04:58:07;;;;;;;;;31.20;30.80;;;;;;;;5050957;29;8825;-68
2023/03/24 05:00:38;;;;;;;;;41.75;38.00;;;;;;;;5049654;29;8822;-68
2023/03/24 05:03:28;;;;;;;;;45.00;39.60;;;;;;;;5052702;29;8830;-68
2023/03/24 05:06:04;;;;;;;;;44.20;39.60;;;;;;;;5050232;29;8819;-69
2023/03/24 05:08:35;;;;;;;;;46.80;41.60;;;;;;;;5031223;29;8834;-69
2023/03/24 05:11:06;;;;;;;;;43.40;39.20;;;;;;;;5029370;29;9495;-69
2023/03/24 05:13:39;;;;;;;;;47.40;41.60;;;;;;;;5013445;29;8843;-69
2023/03/24 05:16:11;;;;;;;;;48.00;42.00;;;;;;;;5044505;29;8816;-77
2023/03/24 05:18:46;;;;;;;;;44.80;38.60;;;;;;;;5029471;29;8855;-77
2023/03/24 05:21:19;;;;;;;;;53.00;43.40;;;;;;;;5029284;29;8824;-78
2023/03/24 05:23:51;;;;;;;;;49.60;42.40;;;;;;;;5028924;29;8893;-77
2023/03/24 05:26:22;;;;;;;;;46.80;41.00;;;;;;;;5013941;29;8880;-68
2023/03/24 05:29:11;;;;;;;;;50.20;42.00;;;;;;;;5044675;29;8807;-77
2023/03/24 05:31:44;;;;;;;;;39.60;37.20;;;;;;;;5014217;29;9704;-77
2023/03/24 05:34:21;;;;;;;;;54.20;44.80;;;;;;;;5047427;29;8798;-76
2023/03/24 05:37:15;;;;;;;;;48.00;41.80;;;;;;;;5035177;29;8847;-77
2023/03/24 05:39:51;;;;;;;;;45.80;38.80;;;;;;;;5048164;29;8818;-77
2023/03/24 05:42:56;;;;;;;;;43.80;39.80;;;;;;;;5036269;29;8814;-78
2023/03/24 05:45:32;;;;;;;;;46.20;40.40;;;;;;;;5017445;29;8806;-77
2023/03/24 05:48:06;;;;;;;;;40.20;37.40;;;;;;;;5032991;29;8835;-77
2023/03/24 05:51:02;;;;;;;;;40.20;36.80;;;;;;;;5026284;29;8937;-78
2023/03/24 05:53:35;;;;;;;;;34.80;34.20;;;;;;;;5032233;29;8837;-78
2023/03/24 05:56:23;;;;;;;;;40.00;35.25;;;;;;;;5018470;29;8818;-78
2023/03/24 05:59:16;;;;;;;;;42.40;39.00;;;;;;;;5031346;29;9608;-77
2023/03/24 06:01:58;;;;;;;;;38.60;35.80;;;;;;;;5032958;29;9575;-77
2023/03/24 06:04:50;;;;;;;;;46.80;39.00;;;;;;;;5034692;29;8822;-78
2023/03/24 06:07:29;;;;;;;;;37.00;35.60;;;;;;;;5017920;29;8936;-78
2023/03/24 06:10:03;;;;;;;;;42.20;38.20;;;;;;;;5033390;29;8880;-77
2023/03/24 06:12:46;;;;;;;;;43.60;38.00;;;;;;;;5020071;29;8808;-77
2023/03/24 06:15:19;;;;;;;;;39.00;36.40;;;;;;;;5018631;29;8808;-77
2023/03/24 06:17:56;;;;;;;;;41.60;38.60;;;;;;;;5033625;29;8845;-77
2023/03/24 06:20:37;;;;;;;;;37.60;34.60;;;;;;;;5034549;29;9505;-76
2023/03/24 06:23:16;;;;;;;;;39.80;36.40;;;;;;;;5031068;29;8800;-76
2023/03/24 06:26:11;;;;;;;;;39.20;37.00;;;;;;;;5032820;29;8792;-77
2023/03/24 06:28:57;;;;;;;;;34.60;33.00;;;;;;;;5030049;29;8800;-76
2023/03/24 06:31:33;;;;;;;;;32.20;31.80;;;;;;;;5045928;29;8817;-77
2023/03/24 06:34:06;;;;;;;;;38.60;36.80;;;;;;;;5018123;29;9498;-77
2023/03/24 06:36:39;;;;;;;;;24.00;23.20;;;;;;;;5018325;29;8809;-76
2023/03/24 06:39:12;;;;;;;;;32.40;32.00;;;;;;;;5018091;29;8798;-69
2023/03/24 06:41:43;;;;;;;;;32.60;31.80;;;;;;;;5033154;29;8818;-69
2023/03/24 06:44:14;;;;;;;;;34.20;32.00;;;;;;;;5048754;29;8861;-69
2023/03/24 06:46:46;;;;;;;;;35.80;34.60;;;;;;;;5065409;29;8805;-69
2023/03/24 06:49:17;;;;;;;;;32.40;31.20;;;;;;;;5065320;29;8873;-69
2023/03/24 06:51:48;;;;;;;;;33.80;33.00;;;;;;;;5049086;29;8944;-69
2023/03/24 06:54:21;;;;;;;;;38.80;36.40;;;;;;;;5038680;29;8844;-69
2023/03/24 06:56:52;;;;;;;;;41.60;36.80;;;;;;;;5013553;29;8887;-69
2023/03/24 06:59:25;;;;;;;;;37.00;35.80;;;;;;;;5029204;29;8832;-70
2023/03/24 07:01:56;;;;;;;;;33.00;32.60;;;;;;;;5028856;29;8963;-70
2023/03/24 07:04:35;;;;;;;;;32.00;31.40;;;;;;;;5014033;29;8850;-69
2023/03/24 07:07:13;;;;;;;;;40.40;37.00;;;;;;;;5029042;29;8839;-69
2023/03/24 07:09:47;;;;;;;;;37.80;36.40;;;;;;;;5029084;29;8998;-70
2023/03/24 07:12:18;;;;;;;;;36.20;35.60;;;;;;;;5045695;29;8950;-70
2023/03/24 07:14:49;;;;;;;;;35.00;32.20;;;;;;;;5029334;29;8963;-69
2023/03/24 07:17:21;;;;;;;;;36.00;34.20;;;;;;;;5044243;29;8875;-70
2023/03/24 07:20:13;;;;;;;;;41.00;37.00;;;;;;;;5044688;29;8914;-70
2023/03/24 07:22:56;;;;;;;;;48.60;40.40;;;;;;;;5000503;29;8854;-69
2023/03/24 07:25:46;;;;;;;;;47.80;41.00;;;;;;;;5035064;29;8806;-70
2023/03/24 07:28:26;;;;;;;;;49.20;42.00;;;;;;;;5032438;29;8818;-69
2023/03/24 07:31:00;;;;;;;;;37.60;35.80;;;;;;;;5017459;29;8833;-69
2023/03/24 07:33:32;;;;;;;;;42.40;39.00;;;;;;;;5032961;29;9584;-69
2023/03/24 07:36:21;;;;;;;;;27.60;26.00;;;;;;;;5049248;29;8798;-69
2023/03/24 07:39:11;;;;;;;;;43.00;38.80;;;;;;;;5031939;29;8913;-69
2023/03/24 07:41:42;;;;;;;;;36.40;33.00;;;;;;;;5049810;29;8799;-69
2023/03/24 07:44:24;;;;;;;;;46.00;38.20;;;;;;;;5018952;29;8825;-69
2023/03/24 07:46:57;;;;;;;;;45.60;39.60;;;;;;;;5032389;29;8845;-69
2023/03/24 07:49:28;;;;;;;;;40.20;36.20;;;;;;;;5017184;29;8836;-68
2023/03/24 07:52:08;;;;;;;;;40.20;34.80;;;;;;;;5049512;29;8817;-68
2023/03/24 07:54:52;;;;;;;;;42.20;38.00;;;;;;;;5013175;29;8984;-68
2023/03/24 07:57:49;;;;;;;;;43.80;38.20;;;;;;;;5038314;29;8862;-69
2023/03/24 08:00:21;;;;;;;;;46.20;40.60;;;;;;;;5036312;29;8806;-69
2023/03/24 08:03:12;;;;;;;;;41.80;37.00;;;;;;;;5054347;29;8822;-68
2023/03/24 08:05:46;;;;;;;;;53.80;45.20;;;;;;;;5068336;29;8810;-69
2023/03/24 08:08:23;;;;;;;;;49.40;41.40;;;;;;;;5050903;29;8830;-69
2023/03/24 08:10:54;;;;;;;;;50.20;42.20;;;;;;;;5068385;29;8790;-68
2023/03/24 08:13:25;;;;;;;;;44.20;38.80;;;;;;;;5068039;29;9550;-68
2023/03/24 08:15:56;;;;;;;;;29.75;29.75;;;;;;;;5035858;29;8932;-68
2023/03/24 08:18:27;;;;;;;;;45.00;38.75;;;;;;;;5035981;29;8845;-68
2023/03/24 08:21:00;;;;;;;;;42.25;38.00;;;;;;;;5051278;29;8915;-69
2023/03/24 08:23:31;;;;;;;;;40.20;36.80;;;;;;;;5067758;29;11089;-69
2023/03/24 08:26:02;;;;;;;;;43.00;37.20;;;;;;;;5050788;29;8810;-69
2023/03/24 08:28:33;;;;;;;;;30.75;30.75;;;;;;;;5050798;29;8897;-68
2023/03/24 08:31:04;;;;;;;;;35.50;32.25;;;;;;;;5067540;29;8790;-69
2023/03/24 08:33:36;;;;;;;;;28.80;26.40;;;;;;;;5050951;29;8848;-69
2023/03/24 08:36:07;;;;;;;;;32.80;31.20;;;;;;;;5035769;29;8964;-68
2023/03/24 08:38:38;;;;;;;;;30.80;30.80;;;;;;;;5067452;29;8945;-69
2023/03/24 08:41:09;;;;;;;;;26.20;25.40;;;;;;;;5067359;29;8836;-69
2023/03/24 08:43:40;;;;;;;;;25.25;24.50;;;;;;;;5067016;29;8809;-69
2023/03/24 08:46:11;;;;;;;;;26.25;25.75;;;;;;;;5067147;29;8830;-69
2023/03/24 08:49:01;;;;;;;;;31.80;31.20;;;;;;;;5037689;29;10214;-69
2023/03/24 08:51:32;;;;;;;;;28.20;28.20;;;;;;;;5050377;29;8818;-69
2023/03/24 08:54:03;;;;;;;;;32.50;32.50;;;;;;;;5050411;29;8840;-70
2023/03/24 08:56:34;;;;;;;;;33.20;33.00;;;;;;;;5067092;29;11338;-70
2023/03/24 08:59:05;;;;;;;;;35.00;32.75;;;;;;;;5034924;29;8798;-69
2023/03/24 09:01:36;;;;;;;;;30.00;27.20;;;;;;;;5067328;29;8793;-69
2023/03/24 09:04:26;;;;;;;;;35.60;33.20;;;;;;;;5052717;29;8790;-69
2023/03/24 09:06:59;;;;;;;;;36.20;35.20;;;;;;;;5051454;29;8829;-70
2023/03/24 09:09:49;;;;;;;;;42.80;38.00;;;;;;;;5049900;29;8879;-69
2023/03/24 09:12:19;;;;;;;;;48.40;41.80;;;;;;;;5050171;29;9429;-69
2023/03/24 09:15:10;;;;;;;;;44.20;38.40;;;;;;;;5037037;29;8857;-69
2023/03/24 09:17:42;;;;;;;;;35.20;33.40;;;;;;;;5050208;29;8833;-69
2023/03/24 09:20:14;;;;;;;;;40.40;36.00;;;;;;;;5052129;29;8834;-69
2023/03/24 09:22:46;;;;;;;;;41.40;37.80;;;;;;;;5054440;29;8838;-69
2023/03/24 09:25:35;;;;;;;;;42.80;37.60;;;;;;;;5068676;29;8826;-69
2023/03/24 09:28:07;;;;;;;;;38.40;36.60;;;;;;;;5019887;29;8821;-69
2023/03/24 09:30:57;;;;;;;;;40.00;36.60;;;;;;;;5066721;29;8844;-69
2023/03/24 09:33:29;;;;;;;;;31.00;28.80;;;;;;;;5049907;29;8818;-69
2023/03/24 09:36:00;;;;;;;;;32.00;30.60;;;;;;;;5049767;29;9526;-69
2023/03/24 09:38:50;;;;;;;;;40.40;37.00;;;;;;;;5049440;29;8976;-68
2023/03/24 09:41:28;;;;;;;;;34.00;32.00;;;;;;;;5037190;29;8987;-68
2023/03/24 09:44:02;;;;;;;;;36.00;34.80;;;;;;;;5057895;29;9694;-67
2023/03/24 09:46:45;;;;;;;;;35.20;33.00;;;;;;;;5037613;29;8933;-68
2023/03/24 09:49:36;;;;;;;;;34.80;33.60;;;;;;;;5071487;29;8807;-68
2023/03/24 09:52:09;;;;;;;;;38.60;35.60;;;;;;;;5053273;29;8803;-69
2023/03/24 09:55:02;;;;;;;;;42.80;37.40;;;;;;;;5066473;29;8873;-68
2023/03/24 09:57:38;;;;;;;;;45.20;40.20;;;;;;;;5033230;29;8833;-68
2023/03/24 10:00:23;;;;;;;;;38.40;36.20;;;;;;;;5049432;29;8838;-68
2023/03/24 10:03:09;;;;;;;;;35.00;33.80;;;;;;;;5049209;29;8824;-68
2023/03/24 10:05:42;;;;;;;;;40.60;36.60;;;;;;;;5048706;29;8826;-68
2023/03/24 10:08:20;;;;;;;;;36.40;34.80;;;;;;;;5033090;29;8838;-68
2023/03/24 10:11:16;;;;;;;;;42.40;37.20;;;;;;;;5049118;29;8817;-68
2023/03/24 10:13:52;;;;;;;;;39.40;36.80;;;;;;;;5065607;29;9564;-69
2023/03/24 10:16:26;;;;;;;;;43.40;38.80;;;;;;;;5033126;29;8822;-68
2023/03/24 10:19:04;;;;;;;;;33.60;32.20;;;;;;;;5048758;29;8853;-69
2023/03/24 10:21:36;;;;;;;;;39.20;36.20;;;;;;;;5048158;29;8794;-68
2023/03/24 10:24:25;;;;;;;;;34.00;33.00;;;;;;;;5048820;29;8869;-68
2023/03/24 10:27:05;;;;;;;;;31.40;31.40;;;;;;;;5048794;29;8933;-68
2023/03/24 10:29:38;;;;;;;;;28.20;27.80;;;;;;;;5048176;29;8806;-68
2023/03/24 10:32:09;;;;;;;;;28.40;27.60;;;;;;;;5034450;29;8811;-68
2023/03/24 10:34:41;;;;;;;;;32.40;29.20;;;;;;;;5043318;29;8887;-68
2023/03/24 10:37:13;;;;;;;;;48.60;41.20;;;;;;;;5027872;29;9562;-68
2023/03/24 10:39:44;;;;;;;;;28.80;28.80;;;;;;;;5052710;29;8810;-68
2023/03/24 10:42:17;;;;;;;;;28.50;27.50;;;;;;;;5031201;29;8794;-68
2023/03/24 10:45:10;;;;;;;;;27.60;25.60;;;;;;;;5049527;29;11461;-69
2023/03/24 10:47:41;;;;;;;;;25.80;25.00;;;;;;;;5046867;29;9446;-68
2023/03/24 10:50:12;;;;;;;;;23.80;23.80;;;;;;;;5063481;29;8794;-69
2023/03/24 10:52:47;;;;;;;;;27.25;26.50;;;;;;;;5046755;29;8786;-68
2023/03/24 10:55:20;;;;;;;;;31.00;29.00;;;;;;;;5030733;29;11520;-68
2023/03/24 10:57:55;;;;;;;;;27.80;26.60;;;;;;;;5045441;29;8813;-68
2023/03/24 11:00:30;;;;;;;;;62.20;50.60;;;;;;;;5031078;29;8805;-68
2023/03/24 11:03:07;;;;;;;;;27.60;24.80;;;;;;;;5046645;29;8813;-68
2023/03/24 11:05:39;;;;;;;;;29.80;29.00;;;;;;;;5062704;29;8852;-69
2023/03/24 11:08:24;;;;;;;;;50.00;40.60;;;;;;;;5061478;29;8798;-69
2023/03/24 11:11:27;;;;;;;;;34.00;32.60;;;;;;;;5057093;29;8802;-68
2023/03/24 11:14:00;;;;;;;;;31.60;30.80;;;;;;;;5048044;29;9588;-68
2023/03/24 11:16:34;;;;;;;;;38.60;36.80;;;;;;;;5047804;29;8826;-67
2023/03/24 11:19:25;;;;;;;;;31.60;31.40;;;;;;;;5065162;29;8920;-67
2023/03/24 11:21:58;;;;;;;;;29.60;29.60;;;;;;;;5031836;29;8821;-67
2023/03/24 11:24:30;;;;;;;;;39.40;37.20;;;;;;;;5032941;29;8812;-67
2023/03/24 11:27:02;;;;;;;;;29.60;29.20;;;;;;;;5048145;29;8802;-67
2023/03/24 11:29:53;;;;;;;;;28.00;28.00;;;;;;;;5050421;29;8774;-68
2023/03/24 11:32:46;;;;;;;;;27.80;26.20;;;;;;;;5064907;29;8821;-67
2023/03/24 11:35:17;;;;;;;;;28.40;28.20;;;;;;;;5064803;29;8814;-67
2023/03/24 11:37:48;;;;;;;;;30.75;30.25;;;;;;;;5047921;29;8834;-68
2023/03/24 11:40:23;;;;;;;;;34.20;33.80;;;;;;;;5064125;29;11565;-69
2023/03/24 11:42:57;;;;;;;;;31.20;31.00;;;;;;;;5017202;29;8913;-67
2023/03/24 11:45:41;;;;;;;;;39.00;32.80;;;;;;;;5048062;29;8849;-67
2023/03/24 11:48:30;;;;;;;;;33.20;33.00;;;;;;;;5047665;29;8822;-67
2023/03/24 11:51:03;;;;;;;;;17.60;15.60;;;;;;;;5048087;29;8809;-67
2023/03/24 11:53:40;;;;;;;;;37.60;35.20;;;;;;;;5043869;29;8848;-67
2023/03/24 11:56:31;;;;;;;;;44.60;39.60;;;;;;;;5028336;29;8822;-67
2023/03/24 11:59:02;;;;;;;;;36.20;33.40;;;;;;;;5045186;29;8940;-68
2023/03/24 12:01:38;;;;;;;;;31.60;31.20;;;;;;;;5028794;29;9660;-68
2023/03/24 12:04:24;;;;;;;;;30.00;29.40;;;;;;;;5029236;29;8932;-68
2023/03/24 12:07:01;;;;;;;;;17.60;15.20;;;;;;;;5028651;29;8810;-68
2023/03/24 12:09:41;;;;;;;;;59.20;48.80;;;;;;;;5014433;29;8794;-68
2023/03/24 12:12:37;;;;;;;;;59.60;49.40;;;;;;;;5048986;29;8829;-68
2023/03/24 12:15:36;;;;;;;;;45.80;40.60;;;;;;;;5048617;29;8826;-68
2023/03/24 12:18:16;;;;;;;;;41.80;38.00;;;;;;;;5031505;29;8834;-68
2023/03/24 12:20:47;;;;;;;;;44.80;40.00;;;;;;;;5031967;29;8778;-68
2023/03/24 12:23:45;;;;;;;;;35.80;33.60;;;;;;;;5028327;29;8815;-68
2023/03/24 12:26:25;;;;;;;;;44.60;39.40;;;;;;;;5029489;29;9533;-68
2023/03/24 12:28:56;;;;;;;;;42.00;37.80;;;;;;;;5028103;29;8804;-68
2023/03/24 12:31:50;;;;;;;;;50.25;43.00;;;;;;;;5023064;29;8856;-68
2023/03/24 12:34:25;;;;;;;;;46.60;40.80;;;;;;;;5028586;29;12316;-69
2023/03/24 12:37:02;;;;;;;;;38.20;36.80;;;;;;;;5011909;29;8814;-69
2023/03/24 12:39:37;;;;;;;;;32.80;32.80;;;;;;;;5024690;29;8818;-68
2023/03/24 12:42:19;;;;;;;;;32.80;31.60;;;;;;;;5022036;29;8828;-69
2023/03/24 12:45:09;;;;;;;;;38.80;37.40;;;;;;;;5039757;29;8836;-68
2023/03/24 12:47:58;;;;;;;;;53.00;42.40;;;;;;;;5040043;29;8981;-68
2023/03/24 12:50:35;;;;;;;;;41.60;38.20;;;;;;;;5040267;29;8825;-69
2023/03/24 12:53:25;;;;;;;;;43.00;39.20;;;;;;;;5008346;29;8820;-69
2023/03/24 12:56:08;;;;;;;;;30.20;29.80;;;;;;;;5055837;29;8817;-69
2023/03/24 12:58:42;;;;;;;;;36.60;35.60;;;;;;;;5059287;29;8821;-69
2023/03/24 13:01:28;;;;;;;;;39.40;36.80;;;;;;;;5065526;29;8790;-69
2023/03/24 13:04:05;;;;;;;;;33.40;33.00;;;;;;;;5049419;29;9571;-68
2023/03/24 13:06:46;;;;;;;;;32.80;32.80;;;;;;;;5050449;29;8827;-69
2023/03/24 13:09:38;;;;;;;;;35.20;34.40;;;;;;;;5038211;29;8832;-68
2023/03/24 13:12:15;;;;;;;;;42.20;38.20;;;;;;;;5015798;29;8804;-68
2023/03/24 13:15:07;;;;;;;;;31.80;31.00;;;;;;;;5030549;29;10189;-69
2023/03/24 13:17:38;;;;;;;;;36.20;34.80;;;;;;;;5061786;29;8868;-70
2023/03/24 13:20:16;;;;;;;;;34.00;33.75;;;;;;;;5048597;29;8778;-69
2023/03/24 13:22:48;;;;;;;;;35.80;35.00;;;;;;;;5045387;29;8840;-68
2023/03/24 13:25:22;;;;;;;;;35.00;32.20;;;;;;;;5066255;29;8805;-69
2023/03/24 13:27:56;;;;;;;;;37.00;36.20;;;;;;;;5049797;29;8859;-68
2023/03/24 13:30:30;;;;;;;;;36.60;35.60;;;;;;;;5034044;29;8790;-68
2023/03/24 13:33:21;;;;;;;;;44.60;40.60;;;;;;;;5062586;29;8802;-69
2023/03/24 13:35:58;;;;;;;;;37.80;35.80;;;;;;;;5046434;29;8849;-69
2023/03/24 13:38:29;;;;;;;;;34.60;33.40;;;;;;;;5058806;29;9514;-69
2023/03/24 13:41:02;;;;;;;;;38.40;36.40;;;;;;;;5033890;29;8830;-68
2023/03/24 13:43:33;;;;;;;;;42.80;38.80;;;;;;;;5062414;29;9494;-68
2023/03/24 13:46:07;;;;;;;;;43.75;38.50;;;;;;;;5048133;29;8896;-69
2023/03/24 13:48:43;;;;;;;;;42.00;39.00;;;;;;;;5057595;29;11546;-67
2023/03/24 13:51:20;;;;;;;;;42.40;38.20;;;;;;;;5047212;29;8812;-67
2023/03/24 13:54:24;;;;;;;;;36.80;34.20;;;;;;;;5027757;29;8844;-67
2023/03/24 13:57:02;;;;;;;;;47.20;41.00;;;;;;;;4979405;29;8825;-67
2023/03/24 13:59:39;;;;;;;;;43.20;39.00;;;;;;;;5014610;29;8847;-67
2023/03/24 14:02:10;;;;;;;;;46.40;41.00;;;;;;;;5023275;29;9227;-67
2023/03/24 14:04:47;;;;;;;;;36.40;35.00;;;;;;;;5010554;29;8882;-68
2023/03/24 14:07:36;;;;;;;;;39.00;36.40;;;;;;;;5040357;29;8884;-68
2023/03/24 14:10:27;;;;;;;;;45.80;39.40;;;;;;;;5032003;29;8774;-68
2023/03/24 14:12:58;;;;;;;;;41.60;37.40;;;;;;;;5007590;29;8920;-68
2023/03/24 14:15:29;;;;;;;;;45.00;40.00;;;;;;;;5046149;29;8932;-68
2023/03/24 14:18:14;;;;;;;;;44.80;41.00;;;;;;;;5026686;29;8834;-68
2023/03/24 14:20:55;;;;;;;;;60.60;49.80;;;;;;;;5042434;29;8786;-68
2023/03/24 14:23:32;;;;;;;;;50.60;43.00;;;;;;;;5028065;29;8801;-68
2023/03/24 14:26:11;;;;;;;;;50.40;42.60;;;;;;;;5046410;29;9561;-68
2023/03/24 14:28:43;;;;;;;;;53.00;44.80;;;;;;;;5028253;29;8807;-69
2023/03/24 14:31:14;;;;;;;;;53.60;43.20;;;;;;;;5044784;29;8810;-67
2023/03/24 14:33:51;;;;;;;;;50.25;43.25;;;;;;;;5028468;29;8810;-68
2023/03/24 14:36:31;;;;;;;;;51.60;43.20;;;;;;;;5027098;29;8827;-68
2023/03/24 14:39:31;;;;;;;;;57.60;47.80;;;;;;;;4994620;29;9584;-67
2023/03/24 14:42:21;;;;;;;;;47.00;41.60;;;;;;;;5026995;29;8899;-67
2023/03/24 14:44:52;;;;;;;;;54.00;42.80;;;;;;;;5028412;29;8790;-68
2023/03/24 14:47:29;;;;;;;;;53.60;44.60;;;;;;;;5028487;29;8814;-67
2023/03/24 14:50:22;;;;;;;;;56.80;46.60;;;;;;;;5015378;29;8889;-67
2023/03/24 14:53:01;;;;;;;;;55.00;44.80;;;;;;;;5029783;29;8797;-67
2023/03/24 14:55:32;;;;;;;;;53.40;45.40;;;;;;;;5044586;29;9577;-67
2023/03/24 14:58:09;;;;;;;;;57.80;48.80;;;;;;;;5032766;29;8813;-67
2023/03/24 15:01:01;;;;;;;;;57.40;48.80;;;;;;;;5048137;29;8824;-67
2023/03/24 15:03:37;;;;;;;;;58.20;49.00;;;;;;;;5032713;29;8794;-67
2023/03/24 15:06:13;;;;;;;;;62.20;50.20;;;;;;;;5065312;29;8888;-67
2023/03/24 15:08:47;;;;;;;;;60.00;45.80;;;;;;;;5065051;29;8825;-67
2023/03/24 15:11:24;;;;;;;;;57.20;48.60;;;;;;;;5032341;29;8825;-67
2023/03/24 15:14:24;;;;;;;;;58.00;48.80;;;;;;;;5064941;29;8813;-66
2023/03/24 15:17:04;;;;;;;;;57.20;47.80;;;;;;;;5065176;29;8837;-66
2023/03/24 15:19:35;;;;;;;;;56.40;46.40;;;;;;;;5047949;29;8825;-67
2023/03/24 15:22:10;;;;;;;;;57.00;48.25;;;;;;;;5032203;29;9538;-66
2023/03/24 15:24:42;;;;;;;;;57.40;48.00;;;;;;;;5041974;29;11410;-67
2023/03/24 15:27:19;;;;;;;;;61.40;49.20;;;;;;;;5044729;29;9552;-66
2023/03/24 15:29:54;;;;;;;;;52.20;44.80;;;;;;;;5046335;29;9679;-67
2023/03/24 15:32:30;;;;;;;;;56.20;46.40;;;;;;;;5063529;29;8948;-68
2023/03/24 15:35:05;;;;;;;;;58.40;47.80;;;;;;;;5046276;29;8870;-68